NCAR-RAP Real-Time Weather Data

Output produced by METARs form (10 April 2020  07:11 UTC)
found at http://weather.rap.ucar.edu/surface/
 
KPUB 100653Z AUTO 00000KT 10SM CLR 06/M02 A3011 RMK AO2 SLP178 T00561022 401830044
KPUB 100553Z AUTO 09005KT 10SM CLR 07/M02 A3011 RMK AO2 SLP177 T00721017 10172 20072 51004
KPUB 100453Z AUTO 10010KT 10SM CLR 09/M01 A3011 RMK AO2 SLP176 T00891011
KPUB 100353Z AUTO 11010KT 10SM CLR 11/M01 A3011 RMK AO2 SLP178 T01061011
KPUB 100253Z AUTO 11010KT 10SM FEW100 12/M01 A3010 RMK AO2 SLP172 T01171011 53017
KPUB 100153Z AUTO 10013KT 10SM CLR 13/M01 A3006 RMK AO2 SLP159 T01331011
KPUB 100053Z AUTO 11012KT 10SM CLR 16/M01 A3004 RMK AO2 SLP148 T01611011
KPUB 092353Z AUTO 09010KT 10SM CLR 17/M01 A3004 RMK AO2 SLP146 T01671011 10183 20117 55005
KPUB 092253Z AUTO 13010KT 10SM CLR 17/M01 A3003 RMK AO2 SLP140 T01721011
KPUB 092153Z AUTO 08011G18KT 10SM CLR 18/M01 A3004 RMK AO2 SLP141 T01781006
KPUB 092053Z AUTO 09009G16KT 10SM CLR 17/M01 A3006 RMK AO2 SLP151 T01671006 58019
KPUB 091953Z 07007G19KT 10SM CLR 15/00 A3009 RMK AO2 SLP164 T01500000
KPUB 091853Z 07010KT 10SM CLR 13/M01 A3011 RMK AO2 SLP171 T01281006
KPUB 091753Z 11007KT 10SM CLR 12/00 A3012 RMK AO2 SLP173 T01170000 10122 20044 56018
KPUB 091653Z VRB04KT 10SM CLR 10/M01 A3014 RMK AO2 SLP182 T01001006
KPUB 091553Z 00000KT 10SM CLR 08/M01 A3016 RMK AO2 SLP188 T00831006
KPUB 091453Z 09007KT 10SM CLR 07/M01 A3018 RMK AO2 SLP191 T00671006 50011
KPUB 091353Z 06005KT 10SM CLR 06/M01 A3019 RMK AO2 SLP189 T00611006
KPUB 091253Z 06006KT 10SM CLR 04/M01 A3017 RMK AO2 SLP181 T00441011
KPUB 091153Z 05008KT 10SM CLR 05/M01 A3015 RMK AO2 SLP169 T00501006 10117 20050 53013
KPUB 091053Z AUTO 05009KT 10SM CLR 06/00 A3012 RMK AO2 SLP159 T00610000
KPUB 090953Z AUTO 06008KT 10SM CLR 06/00 A3011 RMK AO2 SLP155 T00610000